createdAt,value
2017-12-27T00:01:32.016Z,69.02
2017-12-27T00:04:06.916Z,68.71
2017-12-27T00:06:40.976Z,67.69
2017-12-27T00:12:26.643Z,68.59
2017-12-27T00:15:00.997Z,68.43
2017-12-27T00:20:17.096Z,71.17
2017-12-27T00:22:50.396Z,71.29
2017-12-27T00:25:23.576Z,71.01
2017-12-27T00:27:57.956Z,70.03
2017-12-27T00:30:31.303Z,69.82
2017-12-27T00:32:58.999Z,70.17
2017-12-27T00:35:26.711Z,69.94
2017-12-27T00:37:54.892Z,69.19
2017-12-27T00:40:22.521Z,69.26
2017-12-27T00:42:52.031Z,68.83
2017-12-27T00:45:19.906Z,69.25
2017-12-27T00:47:48.665Z,69.00
2017-12-27T00:50:21.910Z,68.60
2017-12-27T00:52:49.916Z,67.44
2017-12-27T00:55:17.448Z,67.03
2017-12-27T00:57:45.888Z,66.76
2017-12-27T01:00:13.887Z,67.61
2017-12-27T01:02:41.548Z,68.01
2017-12-27T01:05:10.003Z,68.28
2017-12-27T01:07:37.642Z,69.71
2017-12-27T01:10:06.211Z,70.21
2017-12-27T01:12:33.950Z,70.02
2017-12-27T01:15:01.634Z,70.48
2017-12-27T01:17:29.328Z,70.03
2017-12-27T01:19:57.241Z,71.51
2017-12-27T01:22:24.961Z,71.04
2017-12-27T01:24:52.568Z,70.16
2017-12-27T01:27:20.295Z,69.57
2017-12-27T01:29:47.930Z,69.77
2017-12-27T01:32:15.642Z,70.07
2017-12-27T01:34:43.307Z,70.16
2017-12-27T01:37:12.122Z,69.22
2017-12-27T01:39:40.746Z,67.88
2017-12-27T01:42:10.426Z,67.29
2017-12-27T01:44:38.328Z,68.36
2017-12-27T01:47:14.533Z,69.04
2017-12-27T01:49:43.171Z,68.97
2017-12-27T01:52:11.888Z,69.60
2017-12-27T01:54:41.353Z,71.21
2017-12-27T01:57:09.831Z,70.88
2017-12-27T01:59:37.677Z,70.86
2017-12-27T02:02:05.346Z,71.07
2017-12-27T02:04:33.086Z,71.01
2017-12-27T02:07:00.829Z,70.73
2017-12-27T02:09:28.483Z,70.22
2017-12-27T02:11:56.144Z,70.19
2017-12-27T02:14:23.943Z,70.00
2017-12-27T02:16:51.607Z,69.85
2017-12-27T02:19:19.130Z,70.23
2017-12-27T02:21:46.825Z,70.89
2017-12-27T02:24:17.319Z,72.57
2017-12-27T02:26:44.943Z,72.16
2017-12-27T02:29:13.405Z,72.83
2017-12-27T02:31:42.236Z,72.21
2017-12-27T02:34:09.855Z,71.22
2017-12-27T02:36:37.412Z,71.11
2017-12-27T02:39:04.981Z,71.17
2017-12-27T02:41:32.589Z,70.04
2017-12-27T02:44:00.209Z,69.66
2017-12-27T02:46:27.742Z,69.83
2017-12-27T02:48:55.252Z,69.79
2017-12-27T02:51:22.908Z,69.79
2017-12-27T02:53:50.529Z,69.68
2017-12-27T02:56:18.125Z,70.54
2017-12-27T02:58:45.646Z,69.98
2017-12-27T03:01:13.902Z,70.34
2017-12-27T03:03:42.518Z,70.58
2017-12-27T03:06:10.237Z,70.62
2017-12-27T03:08:37.872Z,71.14
2017-12-27T03:11:05.401Z,72.41
2017-12-27T03:13:32.947Z,70.82
2017-12-27T03:16:00.484Z,70.55
2017-12-27T03:18:28.497Z,70.58
2017-12-27T03:20:56.142Z,71.63
2017-12-27T03:23:23.677Z,72.45
2017-12-27T03:25:51.268Z,71.43
2017-12-27T03:28:19.629Z,70.67
2017-12-27T03:30:49.954Z,70.60
2017-12-27T03:33:18.610Z,70.67
2017-12-27T03:35:49.238Z,71.12
2017-12-27T03:38:17.352Z,72.35
2017-12-27T03:40:47.778Z,72.13
2017-12-27T03:43:16.086Z,71.48
2017-12-27T03:45:43.607Z,70.94
2017-12-27T03:48:12.225Z,70.99
2017-12-27T03:50:39.842Z,70.85
2017-12-27T03:53:07.398Z,70.69
2017-12-27T03:55:34.917Z,70.32
2017-12-27T03:58:02.420Z,70.46
2017-12-27T04:00:30.029Z,70.36
2017-12-27T04:02:57.559Z,70.37
2017-12-27T04:05:26.024Z,69.97
2017-12-27T04:07:53.681Z,70.00
2017-12-27T04:10:21.237Z,70.08
2017-12-27T04:12:48.836Z,69.76
2017-12-27T04:15:17.224Z,69.88
2017-12-27T04:17:44.757Z,69.86
2017-12-27T04:20:12.285Z,69.68
2017-12-27T04:22:39.843Z,69.87
2017-12-27T04:25:07.404Z,70.42
2017-12-27T04:27:36.012Z,70.04
2017-12-27T04:30:07.861Z,69.50
2017-12-27T04:32:37.494Z,68.49
2017-12-27T04:35:06.297Z,69.58
2017-12-27T04:37:38.135Z,70.16
2017-12-27T04:40:05.717Z,70.45
2017-12-27T04:42:34.159Z,70.78
2017-12-27T04:45:02.297Z,71.58
2017-12-27T04:47:31.673Z,71.00
2017-12-27T04:50:02.044Z,72.26
2017-12-27T04:52:30.330Z,71.89
2017-12-27T04:54:57.867Z,71.01
2017-12-27T04:57:25.524Z,71.27
2017-12-27T04:59:53.624Z,71.05
2017-12-27T05:02:21.392Z,70.75
2017-12-27T05:04:49.995Z,69.68
2017-12-27T05:07:18.170Z,69.68
2017-12-27T05:09:46.430Z,70.08
2017-12-27T05:12:14.035Z,70.07
2017-12-27T05:14:41.618Z,71.40
2017-12-27T05:17:09.843Z,71.44
2017-12-27T05:19:37.577Z,71.18
2017-12-27T05:22:06.071Z,71.10
2017-12-27T05:24:34.530Z,70.83
2017-12-27T05:27:02.126Z,71.79
2017-12-27T05:29:29.766Z,70.96
2017-12-27T05:31:57.383Z,70.91
2017-12-27T05:34:25.637Z,70.96
2017-12-27T05:36:53.277Z,70.44
2017-12-27T05:39:22.314Z,70.27
2017-12-27T05:41:51.278Z,70.58
2017-12-27T05:44:19.230Z,70.43
2017-12-27T05:46:47.217Z,70.35
2017-12-27T05:49:14.905Z,70.31
2017-12-27T05:51:43.157Z,70.62
2017-12-27T05:54:10.705Z,70.15
2017-12-27T05:56:38.332Z,70.45
2017-12-27T05:59:06.778Z,70.09
2017-12-27T06:01:34.384Z,69.61
2017-12-27T06:04:01.946Z,69.89
2017-12-27T06:06:30.506Z,69.16
2017-12-27T06:08:58.572Z,69.36
2017-12-27T06:11:26.189Z,70.46
2017-12-27T06:13:53.807Z,70.14
2017-12-27T06:16:22.789Z,69.30
2017-12-27T06:18:51.238Z,68.95
2017-12-27T06:21:18.875Z,68.96
2017-12-27T06:23:46.544Z,69.27
2017-12-27T06:26:15.449Z,69.36
2017-12-27T06:28:43.036Z,69.07
2017-12-27T06:31:10.762Z,68.78
2017-12-27T06:33:38.325Z,68.31
2017-12-27T06:36:05.859Z,68.15
2017-12-27T06:38:34.125Z,67.47
2017-12-27T06:41:01.605Z,66.41
2017-12-27T06:46:03.236Z,66.35
2017-12-27T06:48:30.835Z,67.65
2017-12-27T06:50:59.043Z,67.43
2017-12-27T06:53:26.683Z,66.93
2017-12-27T06:55:54.716Z,66.33
2017-12-27T06:58:23.349Z,66.23
2017-12-27T07:00:52.530Z,66.75
2017-12-27T07:03:20.074Z,67.01
2017-12-27T07:05:47.734Z,67.35
2017-12-27T07:08:15.525Z,66.75
2017-12-27T07:10:43.079Z,66.34
2017-12-27T07:13:11.636Z,66.59
2017-12-27T07:15:39.092Z,66.79
2017-12-27T07:18:06.567Z,67.08
2017-12-27T07:20:34.020Z,66.56
2017-12-27T07:23:01.491Z,66.80
2017-12-27T07:25:29.039Z,67.63
2017-12-27T07:27:56.602Z,68.44
2017-12-27T07:30:24.323Z,68.65
2017-12-27T07:32:51.814Z,68.07
2017-12-27T07:35:19.516Z,68.28
2017-12-27T07:37:47.916Z,68.03
2017-12-27T07:40:15.488Z,68.06
2017-12-27T07:42:43.115Z,68.30
2017-12-27T07:45:10.737Z,67.37
2017-12-27T07:47:38.303Z,68.15
2017-12-27T07:50:06.000Z,67.64
2017-12-27T07:52:33.739Z,68.30
2017-12-27T07:55:01.245Z,67.49
2017-12-27T07:57:28.873Z,66.45
2017-12-27T07:59:59.517Z,66.50
2017-12-27T08:02:27.243Z,67.18
2017-12-27T08:04:55.104Z,67.56
2017-12-27T08:07:22.656Z,66.73
2017-12-27T08:09:50.204Z,66.97
2017-12-27T08:12:17.707Z,66.58
2017-12-27T08:14:45.204Z,66.87
2017-12-27T08:17:12.742Z,67.38
2017-12-27T08:19:40.291Z,66.89
2017-12-27T08:22:07.820Z,67.35
2017-12-27T08:24:35.376Z,66.48
2017-12-27T08:27:02.876Z,63.88
2017-12-27T08:29:30.481Z,63.79
2017-12-27T08:31:58.315Z,63.36
2017-12-27T08:34:26.163Z,62.96
2017-12-27T08:36:53.778Z,63.04
2017-12-27T08:39:21.276Z,63.80
2017-12-27T08:41:48.840Z,64.18
2017-12-27T08:44:16.330Z,64.53
2017-12-27T08:46:44.614Z,64.44
2017-12-27T08:49:12.136Z,63.79
2017-12-27T08:51:39.727Z,63.81
2017-12-27T08:54:09.684Z,64.10
2017-12-27T08:56:38.980Z,63.82
2017-12-27T08:59:06.519Z,63.81
2017-12-27T09:01:34.023Z,64.03
2017-12-27T09:04:01.626Z,63.88
2017-12-27T09:06:29.566Z,64.15
2017-12-27T09:08:57.710Z,64.35
2017-12-27T09:11:29.720Z,64.44
2017-12-27T09:13:57.785Z,64.55
2017-12-27T09:16:25.327Z,64.64
2017-12-27T09:18:53.043Z,65.18
2017-12-27T09:21:20.581Z,65.20
2017-12-27T09:23:48.615Z,64.68
2017-12-27T09:26:16.187Z,64.17
2017-12-27T09:28:43.773Z,63.44
2017-12-27T09:31:11.494Z,63.32
2017-12-27T09:33:39.051Z,62.99
2017-12-27T09:36:06.594Z,62.57
2017-12-27T09:38:34.161Z,61.74
2017-12-27T09:41:02.949Z,62.68
2017-12-27T09:43:31.768Z,62.38
2017-12-27T09:46:00.427Z,61.77
2017-12-27T09:48:27.905Z,60.65
2017-12-27T09:50:55.473Z,60.53
2017-12-27T09:53:23.394Z,60.41
2017-12-27T09:55:51.010Z,60.48
2017-12-27T09:58:18.598Z,60.18
2017-12-27T10:00:46.097Z,59.31
2017-12-27T10:03:14.805Z,59.19
2017-12-27T10:05:43.662Z,58.55
2017-12-27T10:08:11.404Z,58.37
2017-12-27T10:10:39.443Z,59.66
2017-12-27T10:13:10.877Z,63.55
2017-12-27T10:15:38.632Z,63.02
2017-12-27T10:18:07.297Z,61.76
2017-12-27T10:20:34.885Z,61.18
2017-12-27T10:23:04.039Z,61.05
2017-12-27T10:25:32.222Z,62.86
2017-12-27T10:28:00.408Z,62.80
2017-12-27T10:30:28.733Z,62.48
2017-12-27T10:33:00.814Z,62.50
2017-12-27T10:35:28.389Z,62.61
2017-12-27T10:37:55.960Z,61.39
2017-12-27T10:40:23.638Z,60.48
2017-12-27T10:42:51.610Z,60.12
2017-12-27T10:45:20.081Z,59.80
2017-12-27T10:47:48.044Z,60.45
2017-12-27T10:50:15.706Z,60.92
2017-12-27T10:52:43.389Z,59.83
2017-12-27T10:55:12.726Z,59.33
2017-12-27T10:57:40.620Z,59.61
2017-12-27T11:00:08.117Z,59.35
2017-12-27T11:02:36.448Z,59.49
2017-12-27T11:05:04.117Z,58.80
2017-12-27T11:07:32.161Z,58.31
2017-12-27T11:09:59.671Z,57.78
2017-12-27T11:12:27.493Z,57.00
2017-12-27T11:14:55.057Z,56.90
2017-12-27T11:17:22.635Z,57.93
2017-12-27T11:19:50.240Z,57.76
2017-12-27T11:22:17.755Z,57.45
2017-12-27T11:24:46.603Z,56.76
2017-12-27T11:27:14.151Z,56.71
2017-12-27T11:29:41.960Z,58.59
2017-12-27T11:32:11.169Z,58.42
2017-12-27T11:34:40.028Z,58.02
2017-12-27T11:37:08.053Z,57.76
2017-12-27T11:39:36.001Z,57.60
2017-12-27T11:42:07.597Z,58.39
2017-12-27T11:44:36.579Z,59.35
2017-12-27T11:47:05.711Z,59.21
2017-12-27T11:49:38.390Z,58.20
2017-12-27T11:52:07.851Z,59.85
2017-12-27T11:54:46.289Z,59.65
2017-12-27T11:57:13.829Z,59.13
2017-12-27T11:59:41.484Z,59.49
2017-12-27T12:02:09.071Z,57.90
2017-12-27T12:04:36.954Z,58.18
2017-12-27T12:07:05.604Z,57.82
2017-12-27T12:09:36.096Z,56.96
2017-12-27T12:12:05.360Z,56.40
2017-12-27T12:14:36.596Z,56.51
2017-12-27T12:17:08.762Z,56.83
2017-12-27T12:19:38.263Z,56.22
2017-12-27T12:22:06.703Z,55.51
2017-12-27T12:24:34.792Z,55.19
2017-12-27T12:27:02.338Z,55.10
2017-12-27T12:29:29.792Z,54.50
2017-12-27T12:31:57.585Z,55.02
2017-12-27T12:34:25.103Z,55.25
2017-12-27T12:36:52.778Z,55.41
2017-12-27T12:39:20.840Z,55.44
2017-12-27T12:41:51.132Z,55.75
2017-12-27T12:44:20.737Z,56.00
2017-12-27T12:46:51.409Z,56.26
2017-12-27T12:49:20.629Z,57.12
2017-12-27T12:51:49.852Z,58.48
2017-12-27T12:54:18.651Z,58.42
2017-12-27T12:56:46.797Z,58.98
2017-12-27T12:59:14.738Z,59.10
2017-12-27T13:01:44.540Z,58.63
2017-12-27T13:04:14.523Z,58.42
2017-12-27T13:06:47.093Z,58.13
2017-12-27T13:09:15.905Z,57.91
2017-12-27T13:12:00.030Z,58.06
2017-12-27T13:14:30.651Z,58.33
2017-12-27T13:16:58.713Z,58.89
2017-12-27T13:19:30.136Z,58.96
2017-12-27T13:22:15.601Z,58.99
2017-12-27T13:24:49.549Z,59.61
2017-12-27T13:27:21.781Z,59.44
2017-12-27T13:29:55.987Z,60.13
2017-12-27T13:32:24.734Z,61.56
2017-12-27T13:34:54.443Z,60.80
2017-12-27T13:37:23.204Z,62.18
2017-12-27T13:39:52.821Z,63.13
2017-12-27T13:42:23.220Z,63.50
2017-12-27T13:47:42.316Z,64.04
2017-12-27T13:50:12.111Z,64.11
2017-12-27T13:52:48.052Z,63.40
2017-12-27T13:55:17.307Z,64.00
2017-12-27T13:57:46.037Z,64.09
2017-12-27T14:00:16.868Z,64.58
2017-12-27T14:02:44.483Z,64.61
2017-12-27T14:05:12.020Z,64.38
2017-12-27T14:07:40.212Z,65.11
2017-12-27T14:10:08.475Z,65.21
2017-12-27T14:12:36.129Z,64.39
2017-12-27T14:15:03.640Z,65.56
2017-12-27T14:17:31.130Z,65.68
2017-12-27T14:19:58.818Z,65.92
2017-12-27T14:22:26.357Z,67.12
2017-12-27T14:24:54.095Z,67.80
2017-12-27T14:27:21.595Z,67.81
2017-12-27T14:29:49.224Z,68.21
2017-12-27T14:32:17.162Z,67.88
2017-12-27T14:34:44.646Z,66.97
2017-12-27T14:37:12.230Z,66.21
2017-12-27T14:39:40.183Z,66.20
2017-12-27T14:42:07.731Z,67.03
2017-12-27T14:44:35.823Z,68.76
2017-12-27T14:47:03.343Z,68.92
2017-12-27T14:49:30.967Z,68.41
2017-12-27T14:51:58.712Z,68.48
2017-12-27T14:54:26.204Z,67.85
2017-12-27T14:56:53.781Z,67.75
2017-12-27T14:59:21.327Z,67.34
2017-12-27T15:01:48.786Z,67.82
2017-12-27T15:04:16.292Z,67.78
2017-12-27T15:06:43.831Z,68.55
2017-12-27T15:09:15.328Z,68.92
2017-12-27T15:11:43.114Z,68.57
2017-12-27T15:14:11.049Z,69.38
2017-12-27T15:16:38.513Z,68.68
2017-12-27T15:19:06.131Z,69.39
2017-12-27T15:21:33.618Z,70.29
2017-12-27T15:24:01.093Z,70.55
2017-12-27T15:26:28.628Z,70.79
2017-12-27T15:28:56.178Z,70.25
2017-12-27T15:31:23.675Z,70.35
2017-12-27T15:33:52.711Z,71.10
2017-12-27T15:36:20.264Z,71.09
2017-12-27T15:38:47.760Z,70.87
2017-12-27T15:41:15.712Z,70.61
2017-12-27T15:43:44.058Z,69.77
2017-12-27T15:46:12.223Z,69.57
2017-12-27T15:48:39.749Z,69.87
2017-12-27T15:51:07.694Z,69.90
2017-12-27T15:53:37.519Z,69.01
2017-12-27T15:56:05.857Z,69.00
2017-12-27T15:58:33.776Z,68.66
2017-12-27T16:01:01.739Z,68.73
2017-12-27T16:03:29.224Z,68.59
2017-12-27T16:05:56.741Z,68.59
2017-12-27T16:08:24.388Z,68.84
2017-12-27T16:10:52.092Z,69.05
2017-12-27T16:27:54.852Z,70.36
2017-12-27T16:30:22.580Z,71.46
2017-12-27T16:32:51.098Z,70.46
2017-12-27T16:35:18.861Z,69.88
2017-12-27T16:37:47.299Z,70.52
2017-12-27T16:40:16.989Z,69.81
2017-12-27T16:42:45.590Z,69.48
2017-12-27T16:45:13.097Z,69.97
2017-12-27T16:47:40.848Z,69.78
2017-12-27T16:50:08.323Z,69.69
2017-12-27T16:52:35.821Z,69.84
2017-12-27T16:55:03.484Z,70.05
2017-12-27T16:57:31.080Z,70.04
2017-12-27T16:59:58.617Z,70.15
2017-12-27T17:02:26.150Z,70.64
2017-12-27T17:04:53.700Z,71.20
2017-12-27T17:07:21.493Z,70.93
2017-12-27T17:09:48.967Z,70.66
2017-12-27T17:12:17.078Z,71.65
2017-12-27T17:14:44.692Z,72.47
2017-12-27T17:17:12.284Z,73.34
2017-12-27T17:19:39.812Z,73.17
2017-12-27T17:22:07.458Z,72.41
2017-12-27T17:24:35.380Z,72.17
2017-12-27T17:27:03.045Z,71.94
2017-12-27T17:29:30.704Z,72.07
2017-12-27T17:31:58.876Z,71.88
2017-12-27T17:34:26.808Z,71.87
2017-12-27T17:36:54.292Z,72.32
2017-12-27T17:39:21.745Z,72.15
2017-12-27T17:41:49.402Z,72.23
2017-12-27T17:44:17.148Z,72.11
2017-12-27T17:46:44.868Z,71.65
2017-12-27T17:49:12.328Z,71.46
2017-12-27T17:51:39.927Z,71.26
2017-12-27T17:54:07.431Z,71.55
2017-12-27T17:56:36.028Z,71.04
2017-12-27T17:59:03.520Z,70.55
2017-12-27T18:01:31.083Z,70.38
2017-12-27T18:03:58.767Z,69.67
2017-12-27T18:06:26.258Z,69.52
2017-12-27T18:08:53.812Z,69.80
2017-12-27T18:11:21.303Z,70.07
2017-12-27T18:13:48.784Z,70.20
2017-12-27T18:16:16.340Z,70.36
2017-12-27T18:18:43.859Z,69.52
2017-12-27T18:21:11.559Z,68.63
2017-12-27T18:23:39.153Z,68.08
2017-12-27T18:26:06.647Z,68.08
2017-12-27T18:28:34.687Z,68.54
2017-12-27T18:31:02.358Z,68.60
2017-12-27T18:33:29.883Z,69.31
2017-12-27T18:35:57.555Z,68.54
2017-12-27T18:38:25.098Z,67.84
2017-12-27T18:40:52.556Z,67.88
2017-12-27T18:43:20.049Z,68.48
2017-12-27T18:45:47.577Z,68.13
2017-12-27T18:48:15.639Z,67.65
2017-12-27T18:50:43.196Z,67.75
2017-12-27T18:53:10.721Z,68.38
2017-12-27T18:55:38.204Z,67.96
2017-12-27T18:58:05.795Z,67.63
2017-12-27T19:00:33.353Z,68.15
2017-12-27T19:03:00.898Z,69.10
2017-12-27T19:05:28.711Z,68.99
2017-12-27T19:07:56.191Z,68.56
2017-12-27T19:10:23.712Z,69.20
2017-12-27T19:12:51.250Z,69.11
2017-12-27T19:15:18.883Z,68.97
2017-12-27T19:17:46.934Z,68.51
2017-12-27T19:20:15.005Z,69.04
2017-12-27T19:22:42.628Z,68.84
2017-12-27T19:25:10.129Z,68.32
2017-12-27T19:27:38.508Z,68.42
2017-12-27T19:30:06.023Z,68.07
2017-12-27T19:32:33.708Z,68.50
2017-12-27T19:35:01.864Z,67.18
2017-12-27T19:37:29.569Z,67.56
2017-12-27T19:39:57.182Z,67.50
2017-12-27T19:42:24.764Z,67.68
2017-12-27T19:44:52.427Z,68.04
2017-12-27T19:47:19.930Z,68.27
2017-12-27T19:49:47.455Z,67.61
2017-12-27T19:52:18.576Z,69.11
2017-12-27T19:54:46.308Z,69.41
2017-12-27T19:57:14.032Z,70.31
2017-12-27T19:59:41.527Z,70.47
2017-12-27T20:02:10.175Z,70.49
2017-12-27T20:04:37.759Z,71.11
2017-12-27T20:07:05.288Z,71.36
2017-12-27T20:09:32.863Z,71.22
2017-12-27T20:12:00.386Z,72.08
2017-12-27T20:14:28.526Z,71.44
2017-12-27T20:16:56.723Z,71.53
2017-12-27T20:19:24.471Z,71.60
2017-12-27T20:21:52.127Z,72.23
2017-12-27T20:24:19.903Z,71.71
2017-12-27T20:26:47.557Z,72.68
2017-12-27T20:29:16.226Z,71.98
2017-12-27T20:31:44.198Z,72.05
2017-12-27T20:34:12.158Z,72.95
2017-12-27T20:36:40.188Z,72.37
2017-12-27T20:39:08.182Z,71.75
2017-12-27T20:41:36.322Z,72.52
2017-12-27T20:44:04.272Z,72.42
2017-12-27T20:46:32.647Z,72.46
2017-12-27T20:49:02.342Z,71.57
2017-12-27T20:51:30.764Z,70.38
2017-12-27T20:53:59.170Z,70.70
2017-12-27T20:56:27.181Z,71.64
2017-12-27T20:58:55.344Z,71.55
2017-12-27T21:01:23.455Z,71.24
2017-12-27T21:03:51.203Z,71.11
2017-12-27T21:06:19.232Z,71.66
2017-12-27T21:08:48.046Z,70.74
2017-12-27T21:11:16.188Z,70.74
2017-12-27T21:13:44.004Z,71.41
2017-12-27T21:16:12.228Z,70.38
2017-12-27T21:18:39.986Z,71.06
2017-12-27T21:21:07.897Z,71.20
2017-12-27T21:23:35.389Z,69.98
2017-12-27T21:26:03.102Z,70.31
2017-12-27T21:28:30.876Z,70.00
2017-12-27T21:30:59.193Z,70.24
2017-12-27T21:33:26.676Z,70.31
2017-12-27T21:35:54.183Z,69.02
2017-12-27T21:38:21.707Z,67.91
2017-12-27T21:40:49.397Z,67.93
2017-12-27T21:43:17.947Z,67.24
2017-12-27T21:45:45.457Z,65.72
2017-12-27T21:48:18.497Z,64.05
2017-12-27T21:50:46.813Z,64.75
2017-12-27T21:53:15.087Z,64.50
2017-12-27T21:55:42.787Z,65.86
2017-12-27T22:01:31.280Z,65.23
2017-12-27T22:03:58.775Z,65.06
2017-12-27T22:06:26.264Z,65.66
2017-12-27T22:08:53.730Z,65.67
2017-12-27T22:11:21.203Z,65.64
2017-12-27T22:13:49.470Z,65.00
2017-12-27T22:16:16.946Z,64.83
2017-12-27T22:18:44.589Z,65.30
2017-12-27T22:21:12.274Z,64.04
2017-12-27T22:23:39.861Z,64.14
2017-12-27T22:26:07.365Z,65.47
2017-12-27T22:28:34.881Z,65.46
2017-12-27T22:31:02.554Z,65.90
2017-12-27T22:33:31.303Z,65.59
2017-12-27T22:35:58.815Z,65.69
2017-12-27T22:38:26.338Z,66.13
2017-12-27T22:40:54.074Z,66.91
2017-12-27T22:43:21.975Z,67.89
2017-12-27T22:45:50.198Z,67.84
2017-12-27T22:48:17.697Z,67.57
2017-12-27T22:50:45.326Z,67.69
2017-12-27T22:53:12.814Z,68.00
2017-12-27T22:55:40.268Z,68.51
2017-12-27T22:58:07.764Z,68.64
2017-12-27T23:00:35.289Z,68.72
2017-12-27T23:03:02.922Z,68.55
2017-12-27T23:05:30.398Z,68.93
2017-12-27T23:07:57.897Z,69.57
2017-12-27T23:10:25.367Z,70.21
2017-12-27T23:12:53.007Z,70.50
2017-12-27T23:15:20.814Z,70.42
2017-12-27T23:17:48.312Z,69.61
2017-12-27T23:20:16.502Z,70.26
2017-12-27T23:22:43.978Z,70.91
2017-12-27T23:25:11.445Z,70.33
2017-12-27T23:27:38.916Z,70.07
2017-12-27T23:30:06.387Z,69.79
2017-12-27T23:32:34.032Z,69.42
2017-12-27T23:35:02.263Z,69.35
2017-12-27T23:37:29.878Z,70.11
2017-12-27T23:39:57.362Z,69.98
2017-12-27T23:42:24.825Z,69.71
2017-12-27T23:44:52.816Z,70.11
2017-12-27T23:47:20.419Z,70.61
2017-12-27T23:49:48.077Z,70.28
2017-12-27T23:52:15.610Z,70.05
2017-12-27T23:54:43.061Z,69.97
2017-12-27T23:57:10.544Z,69.79
2017-12-27T23:59:38.051Z,69.28
